Radiosonde details



Informationen :

Serial : D26003277
Type : Graw DFM
Frequency : 403.010MHz
Launchsite : Tampa Bay Area
Nearest town : Belleair Beach, US (57.2km)

Altitude (Max) : 34516m at 2026-09-04 00:51:13
Speed (Max) : 117km/h at altitude 34185m

Average speed : 41km/h
Average ascent rate : 5m/s
Average descent rate : -6m/s
Ascent rate (Max) : 11.9m/s
Descent rate (Max): -49.1m/s

First frame :
ARGUS2 at 2026-09-03 23:09:14 at altitude 1470m (OG: 1428m)
Last frame :
ARGUS2 at 2026-09-04 02:45:13 at altitude 2331m (OG: 2289m)

Flighttime : 3h35m59s
Ascent time : 1h41m59s
Descent time : 1h54m0s
Uptime : -
Killtimer : -

Distance (Straight line distance): 105km

Distance (Route):


Frames : 493


Measurement :

Temperature : 14.2°C
Humidity : 0%
Pressure : 0hPa


Vertical profile (SkewT) :


Elevation profile :



Receiving stations :


Receiver Frames First received Last received
ARGUS2 493 2026-09-03 23:09:14 2026-09-04 02:45:13

Share per receiver :



All frames :


Receiver Date Latitude Longitude Direction Speed Altitude Climb Temperature Humidity Pressure Voltage Killtimer Uptime BKT XDATA
ARGUS22026-09-04 02:45:1328.01193-83.41733319°24km/h2331m-1.9m/s14.2°C0%0hPa0V00:00:0000:00:0000:00:00
ARGUS22026-09-04 02:44:4628.01121-83.41624330°20km/h2380m-1.8m/s14.0°C0%0hPa0V00:00:0000:00:0000:00:00
ARGUS22026-09-04 02:42:5628.00806-83.41164323°26km/h2559m-1.4m/s13.4°C0%0hPa0V00:00:0000:00:0000:00:00
ARGUS22026-09-04 02:42:3528.00753-83.41093286°20km/h2592m-1.7m/s13.2°C0%0hPa0V00:00:0000:00:0000:00:00
ARGUS22026-09-04 02:42:0728.00688-83.40964305°27km/h2644m-1.5m/s13.0°C0%0hPa0V00:00:0000:00:0000:00:00
ARGUS22026-09-04 02:41:4128.00636-83.40851307°26km/h2689m-1.7m/s12.8°C0%0hPa0V00:00:0000:00:0000:00:00
ARGUS22026-09-04 02:40:3628.00507-83.40549317°15km/h2818m-1.9m/s12.4°C0%0hPa0V00:00:0000:00:0000:00:00
ARGUS22026-09-04 02:39:3628.00395-83.40254287°11km/h2946m-2.1m/s11.6°C0%0hPa0V00:00:0000:00:0000:00:00
ARGUS22026-09-04 02:39:1328.00344-83.40128319°20km/h2996m-2.1m/s11.2°C0%0hPa0V00:00:0000:00:0000:00:00
ARGUS22026-09-04 02:23:4227.97173-83.37975320°26km/h5040m-2.3m/s-1.2°C0%0hPa0V00:00:0000:00:0000:00:00
ARGUS22026-09-04 02:07:2127.93292-83.36848306°15km/h7378m-2.4m/s-14.0°C0%0hPa0V00:00:0000:00:0000:00:00
ARGUS22026-09-04 02:06:5427.93182-83.3679714°20km/h7444m-2.2m/s-14.2°C0%0hPa0V00:00:0000:00:0000:00:00
ARGUS22026-09-04 02:06:3127.93104-83.36776307°7km/h7499m-2.3m/s-14.4°C0%0hPa0V00:00:0000:00:0000:00:00
ARGUS22026-09-04 02:06:1027.93031-83.36749324°22km/h7548m-2.3m/s-14.9°C0%0hPa0V00:00:0000:00:0000:00:00
ARGUS22026-09-04 02:05:3827.92921-83.36725306°15km/h7626m-2.3m/s-15.6°C0%0hPa0V00:00:0000:00:0000:00:00
ARGUS22026-09-04 02:05:1727.92845-83.36681357°24km/h7681m-2.4m/s-16.0°C0%0hPa0V00:00:0000:00:0000:00:00
ARGUS22026-09-04 02:04:4927.92764-83.36648297°15km/h7752m-2.5m/s-16.7°C0%0hPa0V00:00:0000:00:0000:00:00
ARGUS22026-09-04 02:04:2827.92695-83.36590315°27km/h7802m-2.5m/s-16.8°C0%0hPa0V00:00:0000:00:0000:00:00
ARGUS22026-09-04 02:04:0027.92577-83.36520303°9km/h7872m-2.6m/s-17.4°C0%0hPa0V00:00:0000:00:0000:00:00
ARGUS22026-09-04 02:03:1027.92393-83.36368286°13km/h8000m-2.6m/s-18.4°C0%0hPa0V00:00:0000:00:0000:00:00
ARGUS22026-09-04 02:02:5027.92323-83.36286304°27km/h8055m-2.7m/s-18.8°C0%0hPa0V00:00:0000:00:0000:00:00
ARGUS22026-09-04 02:02:2127.92213-83.36211290°11km/h8129m-2.5m/s-18.8°C0%0hPa0V00:00:0000:00:0000:00:00
ARGUS22026-09-04 02:02:0127.92140-83.36134314°29km/h8187m-2.8m/s-19.1°C0%0hPa0V00:00:0000:00:0000:00:00
ARGUS22026-09-04 02:01:4027.92045-83.36069346°29km/h8241m-2.7m/s-19.5°C0%0hPa0V00:00:0000:00:0000:00:00
ARGUS22026-09-04 02:01:2027.91950-83.36018356°15km/h8301m-2.9m/s-19.8°C0%0hPa0V00:00:0000:00:0000:00:00
ARGUS22026-09-04 02:00:5927.91875-83.35964295°13km/h8357m-2.9m/s-20.1°C0%0hPa0V00:00:0000:00:0000:00:00
ARGUS22026-09-04 02:00:3927.91795-83.35884308°29km/h8420m-3.1m/s-20.6°C0%0hPa0V00:00:0000:00:0000:00:00
ARGUS22026-09-04 02:00:1727.91694-83.35802348°27km/h8483m-3.1m/s-21.1°C0%0hPa0V00:00:0000:00:0000:00:00
ARGUS22026-09-04 01:59:5727.91607-83.35745330°9km/h8545m-3.2m/s-21.6°C0%0hPa0V00:00:0000:00:0000:00:00
ARGUS22026-09-04 01:59:3627.91544-83.35682291°20km/h8610m-3.1m/s-22.1°C0%0hPa0V00:00:0000:00:0000:00:00
ARGUS22026-09-04 01:59:1627.91471-83.35607332°29km/h8670m-3.1m/s-22.4°C0%0hPa0V00:00:0000:00:0000:00:00
ARGUS22026-09-04 01:58:5627.91377-83.35545360°16km/h8734m-3.1m/s-22.9°C0%0hPa0V00:00:0000:00:0000:00:00
ARGUS22026-09-04 01:58:3527.91302-83.35485298°22km/h8799m-2.9m/s-23.4°C0%0hPa0V00:00:0000:00:0000:00:00
ARGUS22026-09-04 01:58:1327.91201-83.35414358°26km/h8866m-2.9m/s-23.8°C0%0hPa0V00:00:0000:00:0000:00:00
ARGUS22026-09-04 01:57:5227.91125-83.35380339°5km/h8925m-3.0m/s-24.2°C0%0hPa0V00:00:0000:00:0000:00:00
ARGUS22026-09-04 01:57:3127.91062-83.35329301°22km/h8989m-3.1m/s-24.7°C0%0hPa0V00:00:0000:00:0000:00:00
ARGUS22026-09-04 01:57:1127.90981-83.35265336°31km/h9049m-3.0m/s-25.2°C0%0hPa0V00:00:0000:00:0000:00:00
ARGUS22026-09-04 01:56:5027.90886-83.35216328°9km/h9110m-3.0m/s-25.7°C0%0hPa0V00:00:0000:00:0000:00:00
ARGUS22026-09-04 01:56:3027.90822-83.35156297°24km/h9169m-3.0m/s-26.2°C0%0hPa0V00:00:0000:00:0000:00:00
ARGUS22026-09-04 01:56:1027.90729-83.35066340°31km/h9229m-2.8m/s-26.7°C0%0hPa0V00:00:0000:00:0000:00:00
ARGUS22026-09-04 01:55:4927.90634-83.35001325°11km/h9284m-2.7m/s-27.1°C0%0hPa0V00:00:0000:00:0000:00:00
ARGUS22026-09-04 01:55:2927.90548-83.34910302°31km/h9340m-2.6m/s-27.4°C0%0hPa0V00:00:0000:00:0000:00:00
ARGUS22026-09-04 01:55:0827.90440-83.34810336°37km/h9390m-2.6m/s-27.8°C0%0hPa0V00:00:0000:00:0000:00:00
ARGUS22026-09-04 01:54:4827.90328-83.34733315°13km/h9442m-2.3m/s-28.3°C0%0hPa0V00:00:0000:00:0000:00:00
ARGUS22026-09-04 01:54:2727.90225-83.34644305°29km/h9493m-2.6m/s-28.8°C0%0hPa0V00:00:0000:00:0000:00:00
ARGUS22026-09-04 01:54:0727.90090-83.34550344°40km/h9546m-2.8m/s-29.2°C0%0hPa0V00:00:0000:00:0000:00:00
ARGUS22026-09-04 01:53:4627.89954-83.34480341°20km/h9596m-2.4m/s-29.3°C0%0hPa0V00:00:0000:00:0000:00:00
ARGUS22026-09-04 01:53:0427.89679-83.34278336°44km/h9704m-2.7m/s-30.2°C0%0hPa0V00:00:0000:00:0000:00:00
ARGUS22026-09-04 01:52:4327.89518-83.34194352°27km/h9761m-2.7m/s-30.7°C0%0hPa0V00:00:0000:00:0000:00:00
ARGUS22026-09-04 01:52:2227.89373-83.34099311°33km/h9819m-2.8m/s-31.0°C0%0hPa0V00:00:0000:00:0000:00:00
ARGUS22026-09-04 01:51:4127.89001-83.33837345°46km/h9941m-3.1m/s-31.9°C0%0hPa0V00:00:0000:00:0000:00:00
ARGUS22026-09-04 01:51:2027.88818-83.33714330°31km/h10001m-3.0m/s-32.4°C0%0hPa0V00:00:0000:00:0000:00:00
ARGUS22026-09-04 01:50:5927.88636-83.33566313°51km/h10066m-3.2m/s-33.0°C0%0hPa0V00:00:0000:00:0000:00:00
ARGUS22026-09-04 01:50:3927.88452-83.33420334°53km/h10129m-3.2m/s-33.5°C0%0hPa0V00:00:0000:00:0000:00:00
ARGUS22026-09-04 01:50:1827.88273-83.33275336°35km/h10192m-2.8m/s-33.9°C0%0hPa0V00:00:0000:00:0000:00:00
ARGUS22026-09-04 01:49:5827.88123-83.33126305°33km/h10254m-3.1m/s-34.4°C0%0hPa0V00:00:0000:00:0000:00:00
ARGUS22026-09-04 01:49:3827.87960-83.32947314°55km/h10318m-2.8m/s-34.8°C0%0hPa0V00:00:0000:00:0000:00:00
ARGUS22026-09-04 01:49:1627.87785-83.32773334°47km/h10378m-2.9m/s-35.0°C0%0hPa0V00:00:0000:00:0000:00:00
ARGUS22026-09-04 01:48:5527.87610-83.32603314°35km/h10436m-2.9m/s-35.2°C0%0hPa0V00:00:0000:00:0000:00:00
ARGUS22026-09-04 01:47:3327.87058-83.31422293°69km/h10687m-3.0m/s-36.6°C0%0hPa0V00:00:0000:00:0000:00:00
ARGUS22026-09-04 01:47:1227.86957-83.31134279°60km/h10744m-2.9m/s-37.0°C0%0hPa0V00:00:0000:00:0000:00:00
ARGUS22026-09-04 01:46:5227.86822-83.30795300°47km/h10798m-2.5m/s-37.5°C0%0hPa0V00:00:0000:00:0000:00:00
ARGUS22026-09-04 01:46:3127.86744-83.30487299°53km/h10852m-2.0m/s-38.0°C0%0hPa0V00:00:0000:00:0000:00:00
ARGUS22026-09-04 01:46:1127.86628-83.30169289°69km/h10905m-2.5m/s-38.4°C0%0hPa0V00:00:0000:00:0000:00:00
ARGUS22026-09-04 01:45:5027.86483-83.29872287°51km/h10957m-2.9m/s-38.8°C0%0hPa0V00:00:0000:00:0000:00:00
ARGUS22026-09-04 01:45:3027.86339-83.29527304°51km/h11012m-2.5m/s-39.2°C0%0hPa0V00:00:0000:00:0000:00:00
ARGUS22026-09-04 01:45:0927.86249-83.29256284°62km/h11064m-2.8m/s-39.6°C0%0hPa0V00:00:0000:00:0000:00:00
ARGUS22026-09-04 01:44:4927.86102-83.28947302°47km/h11119m-2.8m/s-39.9°C0%0hPa0V00:00:0000:00:0000:00:00
ARGUS22026-09-04 01:44:2727.85958-83.28667290°62km/h11178m-2.7m/s-40.3°C0%0hPa0V00:00:0000:00:0000:00:00
ARGUS22026-09-04 01:44:0727.85794-83.28312304°77km/h11235m-3.3m/s-40.7°C0%0hPa0V00:00:0000:00:0000:00:00
ARGUS22026-09-04 01:43:4727.85634-83.27998296°73km/h11296m-2.8m/s-41.2°C0%0hPa0V00:00:0000:00:0000:00:00
ARGUS22026-09-04 01:43:2627.85423-83.27681308°53km/h11358m-3.2m/s-41.7°C0%0hPa0V00:00:0000:00:0000:00:00
ARGUS22026-09-04 01:43:0627.85271-83.27351308°71km/h11425m-3.1m/s-42.2°C0%0hPa0V00:00:0000:00:0000:00:00
ARGUS22026-09-04 01:42:4527.85056-83.27084315°51km/h11489m-3.5m/s-42.7°C0%0hPa0V00:00:0000:00:0000:00:00
ARGUS22026-09-04 01:42:2527.84876-83.26777317°62km/h11556m-3.0m/s-43.3°C0%0hPa0V00:00:0000:00:0000:00:00
ARGUS22026-09-04 01:42:0427.84719-83.26513302°71km/h11617m-3.0m/s-43.8°C0%0hPa0V00:00:0000:00:0000:00:00
ARGUS22026-09-04 01:41:4427.84532-83.26238293°57km/h11681m-3.1m/s-44.4°C0%0hPa0V00:00:0000:00:0000:00:00
ARGUS22026-09-04 01:41:2327.84349-83.25953310°49km/h11742m-2.8m/s-44.8°C0%0hPa0V00:00:0000:00:0000:00:00
ARGUS22026-09-04 01:41:0327.84196-83.25659313°68km/h11805m-2.9m/s-45.3°C0%0hPa0V00:00:0000:00:0000:00:00
ARGUS22026-09-04 01:40:4227.84052-83.25414291°60km/h11864m-2.9m/s-45.8°C0%0hPa0V00:00:0000:00:0000:00:00
ARGUS22026-09-04 01:40:2227.83886-83.25115292°46km/h11926m-2.9m/s-46.3°C0%0hPa0V00:00:0000:00:0000:00:00
ARGUS22026-09-04 01:40:0127.83738-83.24825309°46km/h11985m-3.1m/s-46.8°C0%0hPa0V00:00:0000:00:0000:00:00
ARGUS22026-09-04 01:39:4127.83593-83.24528314°53km/h12049m-3.2m/s-47.4°C0%0hPa0V00:00:0000:00:0000:00:00
ARGUS22026-09-04 01:39:1927.83449-83.24226311°62km/h12114m-3.1m/s-47.9°C0%0hPa0V00:00:0000:00:0000:00:00
ARGUS22026-09-04 01:38:5927.83326-83.23972290°64km/h12173m-3.2m/s-48.5°C0%0hPa0V00:00:0000:00:0000:00:00
ARGUS22026-09-04 01:38:3827.83154-83.23679292°47km/h12240m-3.1m/s-49.1°C0%0hPa0V00:00:0000:00:0000:00:00
ARGUS22026-09-04 01:38:1827.83003-83.23380314°51km/h12302m-3.2m/s-49.6°C0%0hPa0V00:00:0000:00:0000:00:00
ARGUS22026-09-04 01:37:5827.82891-83.23082294°66km/h12367m-2.9m/s-50.2°C0%0hPa0V00:00:0000:00:0000:00:00
ARGUS22026-09-04 01:37:3727.82753-83.22811287°58km/h12424m-2.9m/s-50.7°C0%0hPa0V00:00:0000:00:0000:00:00
ARGUS22026-09-04 01:37:1727.82610-83.22514289°49km/h12487m-2.9m/s-51.2°C0%0hPa0V00:00:0000:00:0000:00:00
ARGUS22026-09-04 01:36:5627.82478-83.22199312°62km/h12544m-3.2m/s-51.7°C0%0hPa0V00:00:0000:00:0000:00:00
ARGUS22026-09-04 01:36:1527.82196-83.21648289°60km/h12671m-3.4m/s-52.8°C0%0hPa0V00:00:0000:00:0000:00:00
ARGUS22026-09-04 01:35:5527.82038-83.21366289°49km/h12741m-3.5m/s-53.5°C0%0hPa0V00:00:0000:00:0000:00:00
ARGUS22026-09-04 01:35:3427.81886-83.21077314°46km/h12812m-3.7m/s-54.1°C0%0hPa0V00:00:0000:00:0000:00:00
ARGUS22026-09-04 01:35:1427.81767-83.20786305°68km/h12887m-3.6m/s-54.7°C0%0hPa0V00:00:0000:00:0000:00:00
ARGUS22026-09-04 01:34:5327.81585-83.20542312°51km/h12960m-3.8m/s-55.3°C0%0hPa0V00:00:0000:00:0000:00:00
ARGUS22026-09-04 01:34:3327.81413-83.20309297°44km/h13042m-4.1m/s-56.0°C0%0hPa0V00:00:0000:00:0000:00:00
ARGUS22026-09-04 01:34:1227.81308-83.20017304°68km/h13123m-4.4m/s-56.7°C0%0hPa0V00:00:0000:00:0000:00:00
ARGUS22026-09-04 01:33:5227.81164-83.19771284°49km/h13212m-4.4m/s-57.4°C0%0hPa0V00:00:0000:00:0000:00:00
ARGUS22026-09-04 01:33:3127.81068-83.19458298°64km/h13298m-4.4m/s-58.2°C0%0hPa0V00:00:0000:00:0000:00:00
ARGUS22026-09-04 01:33:1027.80957-83.19213286°58km/h13384m-4.3m/s-58.9°C0%0hPa0V00:00:0000:00:0000:00:00
ARGUS22026-09-04 01:32:5027.80836-83.18954285°49km/h13472m-3.8m/s-59.7°C0%0hPa0V00:00:0000:00:0000:00:00
ARGUS22026-09-04 01:32:2927.80715-83.18669311°42km/h13554m-4.1m/s-60.4°C0%0hPa0V00:00:0000:00:0000:00:00
ARGUS22026-09-04 01:32:0827.80568-83.18375314°51km/h13635m-3.8m/s-61.0°C0%0hPa0V00:00:0000:00:0000:00:00
ARGUS22026-09-04 01:31:4827.80436-83.18097313°60km/h13713m-4.1m/s-61.5°C0%0hPa0V00:00:0000:00:0000:00:00
ARGUS22026-09-04 01:31:2827.80308-83.17792305°68km/h13796m-4.1m/s-62.1°C0%0hPa0V00:00:0000:00:0000:00:00
ARGUS22026-09-04 01:31:0727.80195-83.17515296°69km/h13876m-4.0m/s-62.7°C0%0hPa0V00:00:0000:00:0000:00:00
ARGUS22026-09-04 01:30:4727.80065-83.17210303°69km/h13963m-3.9m/s-63.4°C0%0hPa0V00:00:0000:00:0000:00:00
ARGUS22026-09-04 01:30:2627.79926-83.16910311°66km/h14046m-4.1m/s-64.1°C0%0hPa0V00:00:0000:00:0000:00:00
ARGUS22026-09-04 01:30:0627.79774-83.16608309°46km/h14136m-4.8m/s-64.8°C0%0hPa0V00:00:0000:00:0000:00:00
ARGUS22026-09-04 01:29:4527.79648-83.16349288°37km/h14221m-4.5m/s-65.1°C0%0hPa0V00:00:0000:00:0000:00:00
ARGUS22026-09-04 01:29:0327.79380-83.15759313°69km/h14404m-4.6m/s-66.0°C0%0hPa0V00:00:0000:00:0000:00:00
ARGUS22026-09-04 01:28:4327.79207-83.15492323°49km/h14491m-4.1m/s-65.9°C0%0hPa0V00:00:0000:00:0000:00:00
ARGUS22026-09-04 01:28:2227.79029-83.15234296°49km/h14576m-3.8m/s-66.0°C0%0hPa0V00:00:0000:00:0000:00:00
ARGUS22026-09-04 01:28:0227.78863-83.14999284°33km/h14651m-3.8m/s-65.1°C0%0hPa0V00:00:0000:00:0000:00:00
ARGUS22026-09-04 01:27:4227.78752-83.14865312°13km/h14726m-4.1m/s-63.8°C0%0hPa0V00:00:0000:00:0000:00:00
ARGUS22026-09-04 01:27:2127.78716-83.14752293°9km/h14803m-3.7m/s-63.8°C0%0hPa0V00:00:0000:00:0000:00:00
ARGUS22026-09-04 01:27:0027.78743-83.14637253°29km/h14879m-3.9m/s-63.4°C0%0hPa0V00:00:0000:00:0000:00:00
ARGUS22026-09-04 01:26:4027.78775-83.14525281°16km/h14962m-2.5m/s-64.1°C0%0hPa0V00:00:0000:00:0000:00:00
ARGUS22026-09-04 01:26:1927.78760-83.14419250°15km/h15027m-3.2m/s-64.7°C0%0hPa0V00:00:0000:00:0000:00:00
ARGUS22026-09-04 01:25:5927.78752-83.14328270°20km/h15095m-3.7m/s-65.2°C0%0hPa0V00:00:0000:00:0000:00:00
ARGUS22026-09-04 01:25:1827.78721-83.14060269°40km/h15250m-5.5m/s-65.3°C0%0hPa0V00:00:0000:00:0000:00:00
ARGUS22026-09-04 01:24:5827.78723-83.13854272°37km/h15335m-4.2m/s-65.8°C0%0hPa0V00:00:0000:00:0000:00:00
ARGUS22026-09-04 01:24:3727.78733-83.13637275°27km/h15417m-4.0m/s-66.4°C0%0hPa0V00:00:0000:00:0000:00:00
ARGUS22026-09-04 01:24:1727.78722-83.13412276°51km/h15508m-4.9m/s-66.8°C0%0hPa0V00:00:0000:00:0000:00:00
ARGUS22026-09-04 01:23:5627.78697-83.13160276°42km/h15600m-5.0m/s-66.7°C0%0hPa0V00:00:0000:00:0000:00:00
ARGUS22026-09-04 01:23:1427.78607-83.12735295°33km/h15834m-5.0m/s-67.5°C0%0hPa0V00:00:0000:00:0000:00:00
ARGUS22026-09-04 01:22:5427.78555-83.12580273°35km/h15954m-4.8m/s-68.1°C0%0hPa0V00:00:0000:00:0000:00:00
ARGUS22026-09-04 01:22:3427.78529-83.12424280°37km/h16053m-4.6m/s-68.8°C0%0hPa0V00:00:0000:00:0000:00:00
ARGUS22026-09-04 01:22:1327.78493-83.12289299°29km/h16147m-4.2m/s-69.1°C0%0hPa0V00:00:0000:00:0000:00:00
ARGUS22026-09-04 01:21:5327.78412-83.12150312°40km/h16236m-4.3m/s-68.7°C0%0hPa0V00:00:0000:00:0000:00:00
ARGUS22026-09-04 01:21:3227.78304-83.1208421°13km/h16320m-4.3m/s-69.3°C0%0hPa0V00:00:0000:00:0000:00:00
ARGUS22026-09-04 01:21:1127.78226-83.12017320°33km/h16401m-3.9m/s-69.4°C0%0hPa0V00:00:0000:00:0000:00:00
ARGUS22026-09-04 01:20:5127.78178-83.11977217°15km/h16481m-3.8m/s-69.4°C0%0hPa0V00:00:0000:00:0000:00:00
ARGUS22026-09-04 01:20:3027.78169-83.11878330°24km/h16565m-4.3m/s-70.1°C0%0hPa0V00:00:0000:00:0000:00:00
ARGUS22026-09-04 01:20:1027.78203-83.11804230°37km/h16648m-4.1m/s-70.1°C0%0hPa0V00:00:0000:00:0000:00:00
ARGUS22026-09-04 01:19:5027.78255-83.11691178°11km/h16740m-4.4m/s-70.6°C0%0hPa0V00:00:0000:00:0000:00:00
ARGUS22026-09-04 01:19:2927.78347-83.11589254°38km/h16829m-4.5m/s-71.2°C0%0hPa0V00:00:0000:00:0000:00:00
ARGUS22026-09-04 01:19:0927.78406-83.11469202°33km/h16924m-4.8m/s-71.0°C0%0hPa0V00:00:0000:00:0000:00:00
ARGUS22026-09-04 01:18:4827.78530-83.11279260°37km/h17024m-5.3m/s-70.4°C0%0hPa0V00:00:0000:00:0000:00:00
ARGUS22026-09-04 01:18:2827.78645-83.11097240°57km/h17136m-5.6m/s-70.7°C0%0hPa0V00:00:0000:00:0000:00:00
ARGUS22026-09-04 01:18:0727.78695-83.10892224°15km/h17259m-5.7m/s-70.2°C0%0hPa0V00:00:0000:00:0000:00:00
ARGUS22026-09-04 01:17:2227.78884-83.10573237°55km/h17488m-5.2m/s-70.7°C0%0hPa0V00:00:0000:00:0000:00:00
ARGUS22026-09-04 01:16:4127.79037-83.10181267°53km/h17707m-5.1m/s-71.1°C0%0hPa0V00:00:0000:00:0000:00:00
ARGUS22026-09-04 01:16:2127.79072-83.10005220°27km/h17824m-6.1m/s-71.1°C0%0hPa0V00:00:0000:00:0000:00:00
ARGUS22026-09-04 01:16:0027.79069-83.09832305°40km/h17942m-5.8m/s-70.0°C0%0hPa0V00:00:0000:00:0000:00:00
ARGUS22026-09-04 01:15:4027.79065-83.09644265°55km/h18064m-5.7m/s-68.8°C0%0hPa0V00:00:0000:00:0000:00:00
ARGUS22026-09-04 01:15:1927.79006-83.09456292°13km/h18176m-5.4m/s-69.0°C0%0hPa0V00:00:0000:00:0000:00:00
ARGUS22026-09-04 01:14:5927.78918-83.09303327°49km/h18289m-5.6m/s-68.0°C0%0hPa0V00:00:0000:00:0000:00:00
ARGUS22026-09-04 01:14:3827.78807-83.09264257°13km/h18408m-6.0m/s-68.0°C0%0hPa0V00:00:0000:00:0000:00:00
ARGUS22026-09-04 01:14:1727.78770-83.0919854°15km/h18531m-6.7m/s-66.1°C0%0hPa0V00:00:0000:00:0000:00:00
ARGUS22026-09-04 01:13:5627.78816-83.09129256°42km/h18665m-6.6m/s-65.1°C0%0hPa0V00:00:0000:00:0000:00:00
ARGUS22026-09-04 01:13:3627.78935-83.09024191°49km/h18795m-6.6m/s-64.5°C0%0hPa0V00:00:0000:00:0000:00:00
ARGUS22026-09-04 01:12:5527.79224-83.08673230°62km/h19078m-7.0m/s-64.1°C0%0hPa0V00:00:0000:00:0000:00:00
ARGUS22026-09-04 01:12:3427.79290-83.08488182°15km/h19220m-6.4m/s-64.7°C0%0hPa0V00:00:0000:00:0000:00:00
ARGUS22026-09-04 01:12:1427.79394-83.08378262°38km/h19351m-6.3m/s-64.9°C0%0hPa0V00:00:0000:00:0000:00:00
ARGUS22026-09-04 01:11:5427.79482-83.08301196°47km/h19481m-6.2m/s-65.4°C0%0hPa0V00:00:0000:00:0000:00:00
ARGUS22026-09-04 01:11:1327.79676-83.08064250°58km/h19723m-5.7m/s-64.4°C0%0hPa0V00:00:0000:00:0000:00:00
ARGUS22026-09-04 01:10:5227.79685-83.07859243°18km/h19840m-6.1m/s-62.9°C0%0hPa0V00:00:0000:00:0000:00:00
ARGUS22026-09-04 01:10:3227.79669-83.07614316°42km/h19966m-6.2m/s-61.7°C0%0hPa0V00:00:0000:00:0000:00:00
ARGUS22026-09-04 01:10:1127.79666-83.07436264°60km/h20096m-6.6m/s-60.6°C0%0hPa0V00:00:0000:00:0000:00:00
ARGUS22026-09-04 01:09:5127.79653-83.07210215°31km/h20244m-7.5m/s-59.4°C0%0hPa0V00:00:0000:00:0000:00:00
ARGUS22026-09-04 01:09:3027.79745-83.06967270°55km/h20393m-7.7m/s-58.1°C0%0hPa0V00:00:0000:00:0000:00:00
ARGUS22026-09-04 01:09:1027.79851-83.06736247°73km/h20555m-7.8m/s-58.1°C0%0hPa0V00:00:0000:00:0000:00:00
ARGUS22026-09-04 01:08:4827.79846-83.06473222°29km/h20712m-7.3m/s-59.0°C0%0hPa0V00:00:0000:00:0000:00:00
ARGUS22026-09-04 01:08:2927.79827-83.06253322°46km/h20860m-7.4m/s-59.3°C0%0hPa0V00:00:0000:00:0000:00:00
ARGUS22026-09-04 01:07:4727.79839-83.05788220°31km/h21162m-7.3m/s-58.7°C0%0hPa0V00:00:0000:00:0000:00:00
ARGUS22026-09-04 01:07:2627.79859-83.05540332°27km/h21309m-7.2m/s-59.1°C0%0hPa0V00:00:0000:00:0000:00:00
ARGUS22026-09-04 01:07:0627.79892-83.05343268°75km/h21453m-7.3m/s-57.7°C0%0hPa0V00:00:0000:00:0000:00:00
ARGUS22026-09-04 01:06:4627.79906-83.05064235°58km/h21601m-7.0m/s-57.0°C0%0hPa0V00:00:0000:00:0000:00:00
ARGUS22026-09-04 01:06:2527.79892-83.04785326°29km/h21751m-7.7m/s-57.6°C0%0hPa0V00:00:0000:00:0000:00:00
ARGUS22026-09-04 01:06:0527.79908-83.04568288°60km/h21915m-7.7m/s-57.4°C0%0hPa0V00:00:0000:00:0000:00:00
ARGUS22026-09-04 01:05:4427.79970-83.04351230°77km/h22074m-8.1m/s-57.6°C0%0hPa0V00:00:0000:00:0000:00:00
ARGUS22026-09-04 01:05:2427.80078-83.04058204°42km/h22239m-7.9m/s-57.2°C0%0hPa0V00:00:0000:00:0000:00:00
ARGUS22026-09-04 01:05:0327.80213-83.03722280°78km/h22406m-8.6m/s-57.7°C0%0hPa0V00:00:0000:00:0000:00:00
ARGUS22026-09-04 01:04:4327.80284-83.03338258°97km/h22592m-8.8m/s-58.1°C0%0hPa0V00:00:0000:00:0000:00:00
ARGUS22026-09-04 01:04:2227.80249-83.02977253°40km/h22767m-8.6m/s-58.4°C0%0hPa0V00:00:0000:00:0000:00:00
ARGUS22026-09-04 01:03:4027.80269-83.02312281°71km/h23147m-8.7m/s-56.9°C0%0hPa0V00:00:0000:00:0000:00:00
ARGUS22026-09-04 01:03:2027.80261-83.02108235°57km/h23322m-8.8m/s-57.2°C0%0hPa0V00:00:0000:00:0000:00:00
ARGUS22026-09-04 01:02:5927.80208-83.01831277°16km/h23498m-8.1m/s-56.6°C0%0hPa0V00:00:0000:00:0000:00:00
ARGUS22026-09-04 01:02:3927.80201-83.01486295°82km/h23667m-8.5m/s-55.7°C0%0hPa0V00:00:0000:00:0000:00:00
ARGUS22026-09-04 01:02:1927.80193-83.01160274°88km/h23846m-9.2m/s-55.0°C0%0hPa0V00:00:0000:00:0000:00:00
ARGUS22026-09-04 01:01:5827.80116-83.00912221°24km/h24027m-9.3m/s-52.8°C0%0hPa0V00:00:0000:00:0000:00:00
ARGUS22026-09-04 01:01:3827.80037-83.00618335°40km/h24232m-10.2m/s-53.2°C0%0hPa0V00:00:0000:00:0000:00:00
ARGUS22026-09-04 01:01:1727.79957-83.00302304°99km/h24444m-11.1m/s-54.0°C0%0hPa0V00:00:0000:00:0000:00:00
ARGUS22026-09-04 01:00:5727.79839-83.00027274°77km/h24685m-11.9m/s-53.1°C0%0hPa0V00:00:0000:00:0000:00:00
ARGUS22026-09-04 01:00:3627.79692-82.99799245°18km/h24926m-12.1m/s-52.5°C0%0hPa0V00:00:0000:00:0000:00:00
ARGUS22026-09-04 01:00:1627.79583-82.99515353°42km/h25188m-12.5m/s-52.6°C0%0hPa0V00:00:0000:00:0000:00:00
ARGUS22026-09-04 00:59:5527.79517-82.99248299°100km/h25442m-12.8m/s-52.3°C0%0hPa0V00:00:0000:00:0000:00:00
ARGUS22026-09-04 00:59:3527.79435-82.98958268°86km/h25711m-12.3m/s-53.2°C0%0hPa0V00:00:0000:00:0000:00:00
ARGUS22026-09-04 00:59:1427.79357-82.98688214°44km/h25961m-12.4m/s-52.8°C0%0hPa0V00:00:0000:00:0000:00:00
ARGUS22026-09-04 00:58:5427.79334-82.98369268°16km/h26220m-12.6m/s-51.5°C0%0hPa0V00:00:0000:00:0000:00:00
ARGUS22026-09-04 00:58:3327.79358-82.97983299°84km/h26457m-10.7m/s-49.6°C0%0hPa0V00:00:0000:00:0000:00:00
ARGUS22026-09-04 00:58:1327.79338-82.97583284°106km/h26710m-11.7m/s-48.2°C0%0hPa0V00:00:0000:00:0000:00:00
ARGUS22026-09-04 00:57:5227.79292-82.97230262°93km/h26966m-13.0m/s-47.5°C0%0hPa0V00:00:0000:00:0000:00:00
ARGUS22026-09-04 00:57:3127.79249-82.96965221°57km/h27226m-13.4m/s-45.7°C0%0hPa0V00:00:0000:00:0000:00:00
ARGUS22026-09-04 00:57:1027.79247-82.96652222°29km/h27510m-14.0m/s-45.6°C0%0hPa0V00:00:0000:00:0000:00:00
ARGUS22026-09-04 00:56:5027.79234-82.96320331°47km/h27792m-14.4m/s-45.7°C0%0hPa0V00:00:0000:00:0000:00:00
ARGUS22026-09-04 00:56:3027.79271-82.96088292°71km/h28096m-13.5m/s-45.8°C0%0hPa0V00:00:0000:00:0000:00:00
ARGUS22026-09-04 00:56:0827.79323-82.95795269°108km/h28406m-15.1m/s-45.8°C0%0hPa0V00:00:0000:00:0000:00:00
ARGUS22026-09-04 00:55:4727.79325-82.95453254°95km/h28735m-16.8m/s-45.5°C0%0hPa0V00:00:0000:00:0000:00:00
ARGUS22026-09-04 00:55:2527.79325-82.95161265°89km/h29110m-16.0m/s-45.3°C0%0hPa0V00:00:0000:00:0000:00:00
ARGUS22026-09-04 00:55:0327.79287-82.94889233°68km/h29457m-16.2m/s-44.1°C0%0hPa0V00:00:0000:00:0000:00:00
ARGUS22026-09-04 00:54:4327.79262-82.94595340°15km/h29826m-23.1m/s-43.5°C0%0hPa0V00:00:0000:00:0000:00:00
ARGUS22026-09-04 00:54:2127.79239-82.94276286°82km/h30257m-22.0m/s-42.7°C0%0hPa0V00:00:0000:00:0000:00:00
ARGUS22026-09-04 00:54:0127.79120-82.94052299°40km/h30709m-23.6m/s-41.6°C0%0hPa0V00:00:0000:00:0000:00:00
ARGUS22026-09-04 00:53:4027.79066-82.93978194°68km/h31204m-23.1m/s-40.4°C0%0hPa0V00:00:0000:00:0000:00:00
ARGUS22026-09-04 00:52:5127.79612-82.93575248°71km/h32373m-23.1m/s-43.5°C0%0hPa0V00:00:0000:00:0000:00:00
ARGUS22026-09-04 00:52:3027.79735-82.93403260°68km/h32912m-25.2m/s-43.2°C0%0hPa0V00:00:0000:00:0000:00:00
ARGUS22026-09-04 00:52:0627.79750-82.93100264°38km/h33846m-49.1m/s-40.7°C0%0hPa0V00:00:0000:00:0000:00:00
ARGUS22026-09-04 00:51:1327.79795-82.92237254°108km/h34516m4.6m/s-40.9°C0%0hPa0V00:00:0000:00:0000:00:00
ARGUS22026-09-04 00:50:5027.79806-82.91856216°27km/h34355m5.5m/s-40.9°C0%0hPa0V00:00:0000:00:0000:00:00
ARGUS22026-09-04 00:50:2927.79880-82.91494255°115km/h34185m4.5m/s-41.0°C0%0hPa0V00:00:0000:00:0000:00:00
ARGUS22026-09-04 00:50:0227.79951-82.91129250°104km/h33973m6.7m/s-40.7°C0%0hPa0V00:00:0000:00:0000:00:00
ARGUS22026-09-04 00:49:3727.80025-82.90879230°71km/h33772m11.3m/s-40.4°C0%0hPa0V00:00:0000:00:0000:00:00
ARGUS22026-09-04 00:49:1127.80092-82.90586240°64km/h33562m9.0m/s-40.4°C0%0hPa0V00:00:0000:00:0000:00:00
ARGUS22026-09-04 00:48:5027.80090-82.90327339°24km/h33383m8.2m/s-40.5°C0%0hPa0V00:00:0000:00:0000:00:00
ARGUS22026-09-04 00:48:2827.80113-82.90160228°58km/h33223m5.2m/s-39.8°C0%0hPa0V00:00:0000:00:0000:00:00
ARGUS22026-09-04 00:48:0827.80122-82.89937140°22km/h33067m8.6m/s-40.0°C0%0hPa0V00:00:0000:00:0000:00:00
ARGUS22026-09-04 00:47:4527.80202-82.89732268°82km/h32943m6.6m/s-40.4°C0%0hPa0V00:00:0000:00:0000:00:00
ARGUS22026-09-04 00:47:2327.80199-82.89451233°24km/h32833m5.6m/s-41.4°C0%0hPa0V00:00:0000:00:0000:00:00
ARGUS22026-09-04 00:47:0227.80313-82.89212232°84km/h32732m-0.2m/s-42.2°C0%0hPa0V00:00:0000:00:0000:00:00
ARGUS22026-09-04 00:46:4127.80453-82.89022181°16km/h32643m3.7m/s-42.5°C0%0hPa0V00:00:0000:00:0000:00:00
ARGUS22026-09-04 00:46:1827.80583-82.88766245°91km/h32532m2.2m/s-43.9°C0%0hPa0V00:00:0000:00:0000:00:00
ARGUS22026-09-04 00:45:5727.80721-82.88506223°58km/h32444m4.4m/s-43.9°C0%0hPa0V00:00:0000:00:0000:00:00
ARGUS22026-09-04 00:45:3727.80901-82.88284269°33km/h32326m0.7m/s-43.8°C0%0hPa0V00:00:0000:00:0000:00:00
ARGUS22026-09-04 00:45:1627.81150-82.88030221°93km/h32205m8.1m/s-43.8°C0%0hPa0V00:00:0000:00:0000:00:00
ARGUS22026-09-04 00:44:5527.81417-82.87840220°49km/h32079m3.5m/s-42.9°C0%0hPa0V00:00:0000:00:0000:00:00
ARGUS22026-09-04 00:44:3227.81641-82.87672193°80km/h31921m8.2m/s-41.8°C0%0hPa0V00:00:0000:00:0000:00:00
ARGUS22026-09-04 00:44:1227.81857-82.87505220°9km/h31746m7.3m/s-41.2°C0%0hPa0V00:00:0000:00:0000:00:00
ARGUS22026-09-04 00:43:5027.82003-82.87400204°49km/h31596m11.9m/s-41.4°C0%0hPa0V00:00:0000:00:0000:00:00
ARGUS22026-09-04 00:43:2927.82156-82.87264145°13km/h31397m5.5m/s-40.3°C0%0hPa0V00:00:0000:00:0000:00:00
ARGUS22026-09-04 00:43:0527.82240-82.87173212°57km/h31220m7.3m/s-39.5°C0%0hPa0V00:00:0000:00:0000:00:00
ARGUS22026-09-04 00:42:4527.82270-82.87101277°24km/h31058m8.9m/s-39.4°C0%0hPa0V00:00:0000:00:0000:00:00
ARGUS22026-09-04 00:42:2327.82241-82.87038210°18km/h30890m10.1m/s-38.8°C0%0hPa0V00:00:0000:00:0000:00:00
ARGUS22026-09-04 00:42:0227.82132-82.86951355°62km/h30745m2.5m/s-39.8°C0%0hPa0V00:00:0000:00:0000:00:00
ARGUS22026-09-04 00:41:4127.81979-82.86862317°13km/h30629m4.7m/s-39.6°C0%0hPa0V00:00:0000:00:0000:00:00
ARGUS22026-09-04 00:41:2127.81818-82.86740333°66km/h30533m2.8m/s-39.5°C0%0hPa0V00:00:0000:00:0000:00:00
ARGUS22026-09-04 00:41:0027.81669-82.86593310°49km/h30455m4.9m/s-40.0°C0%0hPa0V00:00:0000:00:0000:00:00
ARGUS22026-09-04 00:40:4027.81596-82.86380266°35km/h30355m4.7m/s-41.1°C0%0hPa0V00:00:0000:00:0000:00:00
ARGUS22026-09-04 00:40:1827.81608-82.86109222°51km/h30253m3.6m/s-44.3°C0%0hPa0V00:00:0000:00:0000:00:00
ARGUS22026-09-04 00:39:5727.81758-82.85839271°44km/h30125m5.4m/s-45.0°C0%0hPa0V00:00:0000:00:0000:00:00
ARGUS22026-09-04 00:39:3527.81873-82.85607258°62km/h29990m4.3m/s-45.2°C0%0hPa0V00:00:0000:00:0000:00:00
ARGUS22026-09-04 00:39:1527.81931-82.85366310°47km/h29844m5.3m/s-45.2°C0%0hPa0V00:00:0000:00:0000:00:00
ARGUS22026-09-04 00:38:5527.82012-82.85087254°53km/h29689m8.0m/s-45.2°C0%0hPa0V00:00:0000:00:0000:00:00
ARGUS22026-09-04 00:38:3327.82147-82.84816258°47km/h29527m6.1m/s-45.8°C0%0hPa0V00:00:0000:00:0000:00:00
ARGUS22026-09-04 00:38:1227.82218-82.84489267°60km/h29373m6.0m/s-45.5°C0%0hPa0V00:00:0000:00:0000:00:00
ARGUS22026-09-04 00:37:5227.82272-82.84137248°57km/h29220m6.7m/s-45.5°C0%0hPa0V00:00:0000:00:0000:00:00
ARGUS22026-09-04 00:37:3127.82344-82.83864224°46km/h29082m6.3m/s-45.5°C0%0hPa0V00:00:0000:00:0000:00:00
ARGUS22026-09-04 00:37:1127.82372-82.83599262°60km/h28954m5.7m/s-45.7°C0%0hPa0V00:00:0000:00:0000:00:00
ARGUS22026-09-04 00:36:5027.82386-82.83333266°47km/h28839m7.7m/s-45.7°C0%0hPa0V00:00:0000:00:0000:00:00
ARGUS22026-09-04 00:36:3027.82405-82.82995262°57km/h28719m3.7m/s-44.8°C0%0hPa0V00:00:0000:00:0000:00:00
ARGUS22026-09-04 00:36:0927.82397-82.82652269°66km/h28601m6.8m/s-45.5°C0%0hPa0V00:00:0000:00:0000:00:00
ARGUS22026-09-04 00:35:4927.82396-82.82240272°84km/h28480m7.9m/s-45.7°C0%0hPa0V00:00:0000:00:0000:00:00
ARGUS22026-09-04 00:35:2927.82449-82.81853264°64km/h28360m4.2m/s-46.1°C0%0hPa0V00:00:0000:00:0000:00:00
ARGUS22026-09-04 00:35:0827.82503-82.81515249°37km/h28229m5.6m/s-46.0°C0%0hPa0V00:00:0000:00:0000:00:00
ARGUS22026-09-04 00:34:4727.82562-82.81231264°46km/h28098m5.2m/s-46.7°C0%0hPa0V00:00:0000:00:0000:00:00
ARGUS22026-09-04 00:34:2627.82575-82.80954273°51km/h27969m8.4m/s-46.5°C0%0hPa0V00:00:0000:00:0000:00:00
ARGUS22026-09-04 00:34:0527.82577-82.80643276°77km/h27831m7.6m/s-45.8°C0%0hPa0V00:00:0000:00:0000:00:00
ARGUS22026-09-04 00:33:4527.82587-82.80303272°73km/h27708m4.4m/s-45.5°C0%0hPa0V00:00:0000:00:0000:00:00
ARGUS22026-09-04 00:33:2527.82609-82.79929249°40km/h27585m0.8m/s-45.5°C0%0hPa0V00:00:0000:00:0000:00:00
ARGUS22026-09-04 00:33:0327.82620-82.79571235°40km/h27473m8.9m/s-45.6°C0%0hPa0V00:00:0000:00:0000:00:00
ARGUS22026-09-04 00:32:3927.82633-82.79231264°49km/h27346m3.3m/s-45.4°C0%0hPa0V00:00:0000:00:0000:00:00
ARGUS22026-09-04 00:32:1827.82625-82.78936268°44km/h27236m4.3m/s-46.3°C0%0hPa0V00:00:0000:00:0000:00:00
ARGUS22026-09-04 00:31:5727.82605-82.78677290°62km/h27131m5.7m/s-46.8°C0%0hPa0V00:00:0000:00:0000:00:00
ARGUS22026-09-04 00:31:3727.82523-82.78419268°60km/h27021m6.2m/s-47.7°C0%0hPa0V00:00:0000:00:0000:00:00
ARGUS22026-09-04 00:31:1727.82442-82.78123284°69km/h26909m4.4m/s-48.3°C0%0hPa0V00:00:0000:00:0000:00:00
ARGUS22026-09-04 00:30:5627.82373-82.77776272°53km/h26775m6.5m/s-48.3°C0%0hPa0V00:00:0000:00:0000:00:00
ARGUS22026-09-04 00:30:3527.82338-82.77415278°46km/h26629m4.8m/s-48.4°C0%0hPa0V00:00:0000:00:0000:00:00
ARGUS22026-09-04 00:30:1327.82281-82.76995258°75km/h26477m6.8m/s-49.5°C0%0hPa0V00:00:0000:00:0000:00:00
ARGUS22026-09-04 00:29:5327.82270-82.76607303°75km/h26319m6.5m/s-50.4°C0%0hPa0V00:00:0000:00:0000:00:00
ARGUS22026-09-04 00:29:1127.82223-82.75990284°44km/h26041m6.1m/s-52.5°C0%0hPa0V00:00:0000:00:0000:00:00
ARGUS22026-09-04 00:28:5127.82186-82.75724272°68km/h25919m4.3m/s-52.6°C0%0hPa0V00:00:0000:00:0000:00:00
ARGUS22026-09-04 00:28:3027.82141-82.75471296°82km/h25807m2.5m/s-53.0°C0%0hPa0V00:00:0000:00:0000:00:00
ARGUS22026-09-04 00:28:0827.82038-82.75173295°40km/h25686m6.6m/s-53.1°C0%0hPa0V00:00:0000:00:0000:00:00
ARGUS22026-09-04 00:27:4727.81949-82.74901285°46km/h25576m7.9m/s-52.5°C0%0hPa0V00:00:0000:00:0000:00:00
ARGUS22026-09-04 00:27:0627.81775-82.74318321°38km/h25334m6.1m/s-52.8°C0%0hPa0V00:00:0000:00:0000:00:00
ARGUS22026-09-04 00:26:4527.81679-82.74117292°49km/h25220m5.8m/s-53.0°C0%0hPa0V00:00:0000:00:0000:00:00
ARGUS22026-09-04 00:26:2527.81608-82.73860276°47km/h25099m6.8m/s-53.3°C0%0hPa0V00:00:0000:00:0000:00:00
ARGUS22026-09-04 00:26:0427.81556-82.73595289°44km/h24980m5.0m/s-53.5°C0%0hPa0V00:00:0000:00:0000:00:00
ARGUS22026-09-04 00:25:4327.81475-82.73338291°69km/h24853m3.3m/s-54.1°C0%0hPa0V00:00:0000:00:0000:00:00
ARGUS22026-09-04 00:25:2227.81394-82.73090282°49km/h24730m5.5m/s-54.6°C0%0hPa0V00:00:0000:00:0000:00:00
ARGUS22026-09-04 00:25:0227.81336-82.72753285°69km/h24603m4.3m/s-54.7°C0%0hPa0V00:00:0000:00:0000:00:00
ARGUS22026-09-04 00:24:4127.81272-82.72375279°60km/h24487m5.7m/s-54.7°C0%0hPa0V00:00:0000:00:0000:00:00
ARGUS22026-09-04 00:24:2027.81223-82.72034260°42km/h24369m4.0m/s-54.1°C0%0hPa0V00:00:0000:00:0000:00:00
ARGUS22026-09-04 00:23:5927.81208-82.71753296°40km/h24264m7.0m/s-53.6°C0%0hPa0V00:00:0000:00:0000:00:00
ARGUS22026-09-04 00:23:3927.81172-82.71490275°46km/h24148m4.8m/s-54.0°C0%0hPa0V00:00:0000:00:0000:00:00
ARGUS22026-09-04 00:23:1927.81174-82.71240289°60km/h24040m7.6m/s-55.1°C0%0hPa0V00:00:0000:00:0000:00:00
ARGUS22026-09-04 00:22:5827.81153-82.70933290°69km/h23924m5.6m/s-55.5°C0%0hPa0V00:00:0000:00:0000:00:00
ARGUS22026-09-04 00:22:3727.81116-82.70611278°53km/h23809m6.3m/s-55.6°C0%0hPa0V00:00:0000:00:0000:00:00
ARGUS22026-09-04 00:22:1727.81124-82.70259260°77km/h23689m4.9m/s-55.1°C0%0hPa0V00:00:0000:00:0000:00:00
ARGUS22026-09-04 00:21:5627.81156-82.69888259°73km/h23574m6.8m/s-55.3°C0%0hPa0V00:00:0000:00:0000:00:00
ARGUS22026-09-04 00:21:3627.81139-82.69499269°62km/h23451m6.6m/s-55.7°C0%0hPa0V00:00:0000:00:0000:00:00
ARGUS22026-09-04 00:21:1527.81088-82.69160284°38km/h23335m6.7m/s-55.5°C0%0hPa0V00:00:0000:00:0000:00:00
ARGUS22026-09-04 00:20:5527.81044-82.68831268°49km/h23216m6.0m/s-55.7°C0%0hPa0V00:00:0000:00:0000:00:00
ARGUS22026-09-04 00:20:3427.81043-82.68563270°53km/h23110m6.5m/s-55.7°C0%0hPa0V00:00:0000:00:0000:00:00
ARGUS22026-09-04 00:20:1427.81058-82.68304241°29km/h23007m3.4m/s-55.8°C0%0hPa0V00:00:0000:00:0000:00:00
ARGUS22026-09-04 00:19:5327.81073-82.68057288°37km/h22912m5.6m/s-55.8°C0%0hPa0V00:00:0000:00:0000:00:00
ARGUS22026-09-04 00:19:3327.81100-82.67775284°62km/h22823m4.3m/s-56.7°C0%0hPa0V00:00:0000:00:0000:00:00
ARGUS22026-09-04 00:19:1127.81094-82.67418250°60km/h22734m4.2m/s-57.5°C0%0hPa0V00:00:0000:00:0000:00:00
ARGUS22026-09-04 00:18:5127.81111-82.67032257°66km/h22648m3.8m/s-57.5°C0%0hPa0V00:00:0000:00:0000:00:00
ARGUS22026-09-04 00:18:3127.81131-82.66695281°66km/h22544m4.9m/s-57.5°C0%0hPa0V00:00:0000:00:0000:00:00
ARGUS22026-09-04 00:18:1027.81169-82.66320259°91km/h22441m4.4m/s-57.3°C0%0hPa0V00:00:0000:00:0000:00:00
ARGUS22026-09-04 00:17:5027.81255-82.65964252°66km/h22325m6.8m/s-57.1°C0%0hPa0V00:00:0000:00:0000:00:00
ARGUS22026-09-04 00:17:2927.81374-82.65680250°51km/h22214m6.6m/s-56.4°C0%0hPa0V00:00:0000:00:0000:00:00
ARGUS22026-09-04 00:17:0927.81508-82.65430248°46km/h22102m5.2m/s-57.1°C0%0hPa0V00:00:0000:00:0000:00:00
ARGUS22026-09-04 00:16:4827.81608-82.65234265°57km/h21997m4.3m/s-57.4°C0%0hPa0V00:00:0000:00:0000:00:00
ARGUS22026-09-04 00:16:2827.81654-82.65060273°35km/h21886m5.5m/s-58.3°C0%0hPa0V00:00:0000:00:0000:00:00
ARGUS22026-09-04 00:16:0827.81646-82.64892283°42km/h21791m5.9m/s-58.1°C0%0hPa0V00:00:0000:00:0000:00:00
ARGUS22026-09-04 00:15:4727.81681-82.64668269°49km/h21695m4.3m/s-58.1°C0%0hPa0V00:00:0000:00:0000:00:00
ARGUS22026-09-04 00:15:2627.81742-82.64427255°31km/h21603m5.2m/s-59.5°C0%0hPa0V00:00:0000:00:0000:00:00
ARGUS22026-09-04 00:15:0527.81781-82.64258286°24km/h21515m7.2m/s-60.6°C0%0hPa0V00:00:0000:00:0000:00:00
ARGUS22026-09-04 00:14:4427.81790-82.64142262°16km/h21419m1.4m/s-60.8°C0%0hPa0V00:00:0000:00:0000:00:00
ARGUS22026-09-04 00:14:2427.81816-82.63990249°31km/h21326m5.3m/s-60.7°C0%0hPa0V00:00:0000:00:0000:00:00
ARGUS22026-09-04 00:14:0327.81843-82.63786296°33km/h21227m3.7m/s-61.9°C0%0hPa0V00:00:0000:00:0000:00:00
ARGUS22026-09-04 00:13:4327.81830-82.63594274°33km/h21128m5.7m/s-61.7°C0%0hPa0V00:00:0000:00:0000:00:00
ARGUS22026-09-04 00:13:2227.81797-82.63434272°40km/h21019m5.1m/s-61.5°C0%0hPa0V00:00:0000:00:0000:00:00
ARGUS22026-09-04 00:13:0327.81793-82.63260269°57km/h20910m5.7m/s-60.8°C0%0hPa0V00:00:0000:00:0000:00:00
ARGUS22026-09-04 00:12:4227.81808-82.63026249°38km/h20793m5.4m/s-60.5°C0%0hPa0V00:00:0000:00:0000:00:00
ARGUS22026-09-04 00:12:2127.81880-82.62842210°35km/h20673m6.1m/s-60.7°C0%0hPa0V00:00:0000:00:0000:00:00
ARGUS22026-09-04 00:12:0127.81957-82.62649253°20km/h20549m4.7m/s-61.1°C0%0hPa0V00:00:0000:00:0000:00:00
ARGUS22026-09-04 00:11:4027.82003-82.62445263°38km/h20446m6.7m/s-60.9°C0%0hPa0V00:00:0000:00:0000:00:00
ARGUS22026-09-04 00:11:2027.82025-82.62247276°22km/h20346m4.3m/s-61.4°C0%0hPa0V00:00:0000:00:0000:00:00
ARGUS22026-09-04 00:10:5927.81990-82.62048272°47km/h20251m4.5m/s-61.5°C0%0hPa0V00:00:0000:00:0000:00:00
ARGUS22026-09-04 00:10:3927.81912-82.61825284°40km/h20153m5.7m/s-61.9°C0%0hPa0V00:00:0000:00:0000:00:00
ARGUS22026-09-04 00:10:1827.81879-82.61621284°31km/h20047m5.3m/s-62.3°C0%0hPa0V00:00:0000:00:0000:00:00
ARGUS22026-09-04 00:09:5727.81822-82.61445294°31km/h19935m7.0m/s-62.5°C0%0hPa0V00:00:0000:00:0000:00:00
ARGUS22026-09-04 00:09:3727.81788-82.61236283°20km/h19809m5.8m/s-62.9°C0%0hPa0V00:00:0000:00:0000:00:00
ARGUS22026-09-04 00:09:1727.81821-82.61063224°31km/h19692m5.7m/s-62.9°C0%0hPa0V00:00:0000:00:0000:00:00
ARGUS22026-09-04 00:08:5527.81902-82.60900264°38km/h19569m5.2m/s-63.2°C0%0hPa0V00:00:0000:00:0000:00:00
ARGUS22026-09-04 00:08:3527.81971-82.60782235°31km/h19453m4.9m/s-64.0°C0%0hPa0V00:00:0000:00:0000:00:00
ARGUS22026-09-04 00:08:1527.82038-82.60736154°18km/h19338m3.7m/s-63.9°C0%0hPa0V00:00:0000:00:0000:00:00
ARGUS22026-09-04 00:07:5427.82069-82.60706271°15km/h19242m4.2m/s-63.7°C0%0hPa0V00:00:0000:00:0000:00:00
ARGUS22026-09-04 00:07:3427.82075-82.60644350°7km/h19137m5.6m/s-63.5°C0%0hPa0V00:00:0000:00:0000:00:00
ARGUS22026-09-04 00:07:1327.82091-82.60583236°20km/h19046m4.9m/s-63.3°C0%0hPa0V00:00:0000:00:0000:00:00
ARGUS22026-09-04 00:06:5327.82132-82.60451228°35km/h18941m5.2m/s-62.7°C0%0hPa0V00:00:0000:00:0000:00:00
ARGUS22026-09-04 00:06:3227.82188-82.60288257°49km/h18858m2.2m/s-63.5°C0%0hPa0V00:00:0000:00:0000:00:00
ARGUS22026-09-04 00:06:1227.82298-82.60085223°38km/h18766m4.5m/s-64.3°C0%0hPa0V00:00:0000:00:0000:00:00
ARGUS22026-09-04 00:05:5127.82392-82.59935206°26km/h18673m4.7m/s-65.4°C0%0hPa0V00:00:0000:00:0000:00:00
ARGUS22026-09-04 00:05:3127.82423-82.59823305°18km/h18576m5.5m/s-67.7°C0%0hPa0V00:00:0000:00:0000:00:00
ARGUS22026-09-04 00:05:0927.82391-82.59755278°13km/h18456m5.9m/s-68.6°C0%0hPa0V00:00:0000:00:0000:00:00
ARGUS22026-09-04 00:04:4927.82288-82.5971820km/h18341m5.3m/s-68.2°C0%0hPa0V00:00:0000:00:0000:00:00
ARGUS22026-09-04 00:04:2827.82151-82.59636306°33km/h18217m4.9m/s-68.3°C0%0hPa0V00:00:0000:00:0000:00:00
ARGUS22026-09-04 00:04:1027.82070-82.59527252°18km/h18113m5.2m/s-68.4°C0%0hPa0V00:00:0000:00:0000:00:00
ARGUS22026-09-04 00:03:4827.82063-82.59410286°24km/h18007m3.6m/s-69.3°C0%0hPa0V00:00:0000:00:0000:00:00
ARGUS22026-09-04 00:03:2827.82073-82.59338257°11km/h17917m5.1m/s-69.9°C0%0hPa0V00:00:0000:00:0000:00:00
ARGUS22026-09-04 00:03:0827.82073-82.59267295°18km/h17823m4.5m/s-69.9°C0%0hPa0V00:00:0000:00:0000:00:00
ARGUS22026-09-04 00:02:2527.82112-82.59010247°33km/h17529m4.8m/s-69.7°C0%0hPa0V00:00:0000:00:0000:00:00
ARGUS22026-09-04 00:01:5727.82179-82.58883242°40km/h17419m3.9m/s-69.2°C0%0hPa0V00:00:0000:00:0000:00:00
ARGUS22026-09-04 00:01:2927.82258-82.58742231°37km/h17309m5.8m/s-68.5°C0%0hPa0V00:00:0000:00:0000:00:00
ARGUS22026-09-04 00:00:4427.82478-82.58444218°40km/h17090m5.5m/s-67.7°C0%0hPa0V00:00:0000:00:0000:00:00
ARGUS22026-09-04 00:00:2627.82583-82.58295261°35km/h16974m5.8m/s-67.5°C0%0hPa0V00:00:0000:00:0000:00:00
ARGUS22026-09-03 23:59:4227.82746-82.57879238°42km/h16750m5.1m/s-68.2°C0%0hPa0V00:00:0000:00:0000:00:00
ARGUS22026-09-03 23:59:2027.82830-82.57654255°29km/h16634m5.7m/s-68.9°C0%0hPa0V00:00:0000:00:0000:00:00
ARGUS22026-09-03 23:59:0027.82846-82.57465292°37km/h16529m4.9m/s-69.7°C0%0hPa0V00:00:0000:00:0000:00:00
ARGUS22026-09-03 23:58:4027.82823-82.57286291°29km/h16428m5.6m/s-69.4°C0%0hPa0V00:00:0000:00:0000:00:00
ARGUS22026-09-03 23:58:1927.82766-82.57153293°38km/h16334m3.9m/s-69.1°C0%0hPa0V00:00:0000:00:0000:00:00
ARGUS22026-09-03 23:57:5827.82685-82.56998283°42km/h16241m4.1m/s-68.7°C0%0hPa0V00:00:0000:00:0000:00:00
ARGUS22026-09-03 23:57:3827.82613-82.56862301°29km/h16149m4.9m/s-68.1°C0%0hPa0V00:00:0000:00:0000:00:00
ARGUS22026-09-03 23:57:1827.82557-82.56686286°31km/h16048m4.9m/s-67.6°C0%0hPa0V00:00:0000:00:0000:00:00
ARGUS22026-09-03 23:56:5727.82479-82.56516312°47km/h15947m6.1m/s-67.9°C0%0hPa0V00:00:0000:00:0000:00:00
ARGUS22026-09-03 23:56:3727.82371-82.56323285°35km/h15837m6.4m/s-67.3°C0%0hPa0V00:00:0000:00:0000:00:00
ARGUS22026-09-03 23:56:1627.82301-82.56071280°53km/h15726m5.7m/s-67.1°C0%0hPa0V00:00:0000:00:0000:00:00
ARGUS22026-09-03 23:55:5627.82234-82.55783283°51km/h15624m5.8m/s-66.8°C0%0hPa0V00:00:0000:00:0000:00:00
ARGUS22026-09-03 23:55:3527.82203-82.55485273°51km/h15530m4.6m/s-66.3°C0%0hPa0V00:00:0000:00:0000:00:00
ARGUS22026-09-03 23:55:1527.82201-82.55160293°42km/h15430m6.2m/s-66.5°C0%0hPa0V00:00:0000:00:0000:00:00
ARGUS22026-09-03 23:54:5427.82191-82.54909271°40km/h15335m4.9m/s-67.3°C0%0hPa0V00:00:0000:00:0000:00:00
ARGUS22026-09-03 23:54:3427.82179-82.54720289°51km/h15229m7.5m/s-69.5°C0%0hPa0V00:00:0000:00:0000:00:00
ARGUS22026-09-03 23:54:1227.82157-82.54514281°37km/h15084m8.6m/s-68.8°C0%0hPa0V00:00:0000:00:0000:00:00
ARGUS22026-09-03 23:53:5227.82024-82.54340324°44km/h14969m5.0m/s-68.6°C0%0hPa0V00:00:0000:00:0000:00:00
ARGUS22026-09-03 23:53:3227.81883-82.54146308°42km/h14861m4.7m/s-68.5°C0%0hPa0V00:00:0000:00:0000:00:00
ARGUS22026-09-03 23:53:1127.81733-82.53940306°49km/h14757m7.0m/s-68.3°C0%0hPa0V00:00:0000:00:0000:00:00
ARGUS22026-09-03 23:52:5027.81570-82.53719310°57km/h14651m5.9m/s-68.0°C0%0hPa0V00:00:0000:00:0000:00:00
ARGUS22026-09-03 23:52:3027.81421-82.53493311°44km/h14558m5.6m/s-67.3°C0%0hPa0V00:00:0000:00:0000:00:00
ARGUS22026-09-03 23:52:1027.81279-82.53251288°44km/h14463m5.0m/s-66.7°C0%0hPa0V00:00:0000:00:0000:00:00
ARGUS22026-09-03 23:51:4927.81180-82.53036291°38km/h14376m4.3m/s-66.4°C0%0hPa0V00:00:0000:00:0000:00:00
ARGUS22026-09-03 23:51:2827.81105-82.52822281°38km/h14290m4.5m/s-65.9°C0%0hPa0V00:00:0000:00:0000:00:00
ARGUS22026-09-03 23:51:0827.81047-82.52614288°37km/h14202m4.5m/s-65.4°C0%0hPa0V00:00:0000:00:0000:00:00
ARGUS22026-09-03 23:50:4827.80995-82.52375276°40km/h14109m3.3m/s-64.8°C0%0hPa0V00:00:0000:00:0000:00:00
ARGUS22026-09-03 23:50:2727.80948-82.52123282°49km/h14015m6.3m/s-64.0°C0%0hPa0V00:00:0000:00:0000:00:00
ARGUS22026-09-03 23:50:0727.80897-82.51870281°46km/h13914m6.6m/s-63.2°C0%0hPa0V00:00:0000:00:0000:00:00
ARGUS22026-09-03 23:49:4627.80868-82.51605285°49km/h13817m4.8m/s-62.4°C0%0hPa0V00:00:0000:00:0000:00:00
ARGUS22026-09-03 23:49:2627.80834-82.51315271°57km/h13717m4.7m/s-61.8°C0%0hPa0V00:00:0000:00:0000:00:00
ARGUS22026-09-03 23:49:0427.80817-82.51031269°49km/h13612m5.4m/s-60.9°C0%0hPa0V00:00:0000:00:0000:00:00
ARGUS22026-09-03 23:48:4427.80798-82.50760282°40km/h13514m3.7m/s-60.0°C0%0hPa0V00:00:0000:00:0000:00:00
ARGUS22026-09-03 23:48:2327.80791-82.50475281°46km/h13407m5.4m/s-59.1°C0%0hPa0V00:00:0000:00:0000:00:00
ARGUS22026-09-03 23:48:0327.80787-82.50201259°38km/h13303m4.5m/s-58.2°C0%0hPa0V00:00:0000:00:0000:00:00
ARGUS22026-09-03 23:47:4327.80787-82.49893258°64km/h13198m6.1m/s-57.4°C0%0hPa0V00:00:0000:00:0000:00:00
ARGUS22026-09-03 23:47:2227.80794-82.49578282°60km/h13097m5.2m/s-56.6°C0%0hPa0V00:00:0000:00:0000:00:00
ARGUS22026-09-03 23:46:4127.80788-82.48942282°47km/h12879m5.1m/s-54.7°C0%0hPa0V00:00:0000:00:0000:00:00
ARGUS22026-09-03 23:46:2127.80782-82.48632272°46km/h12766m5.4m/s-53.8°C0%0hPa0V00:00:0000:00:0000:00:00
ARGUS22026-09-03 23:46:0027.80749-82.48354281°51km/h12663m5.5m/s-53.0°C0%0hPa0V00:00:0000:00:0000:00:00
ARGUS22026-09-03 23:45:4027.80721-82.48087281°53km/h12549m6.3m/s-52.1°C0%0hPa0V00:00:0000:00:0000:00:00
ARGUS22026-09-03 23:45:1927.80655-82.47803294°62km/h12433m6.2m/s-51.1°C0%0hPa0V00:00:0000:00:0000:00:00
ARGUS22026-09-03 23:44:5927.80575-82.47513261°33km/h12312m4.4m/s-50.1°C0%0hPa0V00:00:0000:00:0000:00:00
ARGUS22026-09-03 23:44:3827.80478-82.47236285°42km/h12202m4.6m/s-49.2°C0%0hPa0V00:00:0000:00:0000:00:00
ARGUS22026-09-03 23:44:1827.80380-82.46948290°57km/h12093m6.4m/s-48.3°C0%0hPa0V00:00:0000:00:0000:00:00
ARGUS22026-09-03 23:43:5627.80290-82.46660286°57km/h11980m4.7m/s-47.3°C0%0hPa0V00:00:0000:00:0000:00:00
ARGUS22026-09-03 23:43:3627.80188-82.46371270°49km/h11880m6.4m/s-46.5°C0%0hPa0V00:00:0000:00:0000:00:00
ARGUS22026-09-03 23:43:1527.80100-82.46075300°51km/h11771m5.4m/s-45.7°C0%0hPa0V00:00:0000:00:0000:00:00
ARGUS22026-09-03 23:42:5527.80024-82.45780287°47km/h11667m4.7m/s-44.8°C0%0hPa0V00:00:0000:00:0000:00:00
ARGUS22026-09-03 23:42:3527.79945-82.45462286°55km/h11554m5.2m/s-43.9°C0%0hPa0V00:00:0000:00:0000:00:00
ARGUS22026-09-03 23:42:1427.79863-82.45145297°64km/h11448m5.6m/s-42.9°C0%0hPa0V00:00:0000:00:0000:00:00
ARGUS22026-09-03 23:41:5427.79779-82.44796296°60km/h11332m5.0m/s-41.9°C0%0hPa0V00:00:0000:00:0000:00:00
ARGUS22026-09-03 23:41:3327.79690-82.44480284°57km/h11225m4.8m/s-41.0°C0%0hPa0V00:00:0000:00:0000:00:00
ARGUS22026-09-03 23:41:1327.79586-82.44147287°64km/h11109m5.5m/s-40.1°C0%0hPa0V00:00:0000:00:0000:00:00
ARGUS22026-09-03 23:40:5227.79477-82.43813300°82km/h10993m6.9m/s-39.1°C0%0hPa0V00:00:0000:00:0000:00:00
ARGUS22026-09-03 23:40:3227.79375-82.43485309°69km/h10858m5.5m/s-38.0°C0%0hPa0V00:00:0000:00:0000:00:00
ARGUS22026-09-03 23:40:1127.79254-82.43193285°47km/h10732m5.9m/s-37.0°C0%0hPa0V00:00:0000:00:0000:00:00
ARGUS22026-09-03 23:39:5127.79124-82.42935275°51km/h10601m6.6m/s-36.0°C0%0hPa0V00:00:0000:00:0000:00:00
ARGUS22026-09-03 23:39:3027.78989-82.42685298°37km/h10473m8.3m/s-35.0°C0%0hPa0V00:00:0000:00:0000:00:00
ARGUS22026-09-03 23:39:1027.78828-82.42475285°44km/h10336m6.3m/s-34.0°C0%0hPa0V00:00:0000:00:0000:00:00
ARGUS22026-09-03 23:38:4927.78642-82.42277323°66km/h10203m7.1m/s-33.0°C0%0hPa0V00:00:0000:00:0000:00:00
ARGUS22026-09-03 23:38:2927.78413-82.42113307°42km/h10073m6.3m/s-32.2°C0%0hPa0V00:00:0000:00:0000:00:00
ARGUS22026-09-03 23:38:0727.78223-82.42011310°33km/h9943m5.8m/s-31.5°C0%0hPa0V00:00:0000:00:0000:00:00
ARGUS22026-09-03 23:37:4727.78075-82.41895349°37km/h9812m5.8m/s-31.4°C0%0hPa0V00:00:0000:00:0000:00:00
ARGUS22026-09-03 23:37:2627.77920-82.41866347°16km/h9689m4.9m/s-30.4°C0%0hPa0V00:00:0000:00:0000:00:00
ARGUS22026-09-03 23:36:4627.77562-82.4177335km/h9472m5.5m/s-28.8°C0%0hPa0V00:00:0000:00:0000:00:00
ARGUS22026-09-03 23:36:2527.77371-82.41729339°47km/h9376m4.7m/s-28.1°C0%0hPa0V00:00:0000:00:0000:00:00
ARGUS22026-09-03 23:36:0427.77185-82.4173235km/h9277m4.7m/s-27.5°C0%0hPa0V00:00:0000:00:0000:00:00
ARGUS22026-09-03 23:35:4427.77022-82.4172914°24km/h9183m4.4m/s-26.9°C0%0hPa0V00:00:0000:00:0000:00:00
ARGUS22026-09-03 23:35:2427.76858-82.4173324°42km/h9071m6.2m/s-26.0°C0%0hPa0V00:00:0000:00:0000:00:00
ARGUS22026-09-03 23:35:0327.76716-82.41715345°31km/h8960m6.5m/s-25.1°C0%0hPa0V00:00:0000:00:0000:00:00
ARGUS22026-09-03 23:34:4327.76588-82.41697327°16km/h8850m4.3m/s-24.5°C0%0hPa0V00:00:0000:00:0000:00:00
ARGUS22026-09-03 23:34:2227.76475-82.4167035°7km/h8745m6.3m/s-23.7°C0%0hPa0V00:00:0000:00:0000:00:00
ARGUS22026-09-03 23:33:4127.76248-82.41610322°31km/h8524m5.0m/s-22.0°C0%0hPa0V00:00:0000:00:0000:00:00
ARGUS22026-09-03 23:33:2127.76122-82.41562328°38km/h8418m3.4m/s-21.1°C0%0hPa0V00:00:0000:00:0000:00:00
ARGUS22026-09-03 23:33:0027.75967-82.4150811°46km/h8319m5.2m/s-20.3°C0%0hPa0V00:00:0000:00:0000:00:00
ARGUS22026-09-03 23:32:1927.75667-82.4147717°20km/h8084m3.9m/s-18.7°C0%0hPa0V00:00:0000:00:0000:00:00
ARGUS22026-09-03 23:31:5827.75532-82.41484357°20km/h7977m5.5m/s-18.3°C0%0hPa0V00:00:0000:00:0000:00:00
ARGUS22026-09-03 23:31:3727.75402-82.4150631km/h7857m6.6m/s-17.6°C0%0hPa0V00:00:0000:00:0000:00:00
ARGUS22026-09-03 23:31:1727.75286-82.4150933km/h7737m5.9m/s-16.6°C0%0hPa0V00:00:0000:00:0000:00:00
ARGUS22026-09-03 23:30:5727.75157-82.4151418km/h7624m3.9m/s-15.8°C0%0hPa0V00:00:0000:00:0000:00:00
ARGUS22026-09-03 23:30:3627.75033-82.41525349°42km/h7509m7.8m/s-15.3°C0%0hPa0V00:00:0000:00:0000:00:00
ARGUS22026-09-03 23:30:1627.74891-82.41534357°44km/h7397m6.2m/s-14.5°C0%0hPa0V00:00:0000:00:0000:00:00
ARGUS22026-09-03 23:29:5527.74743-82.41479332°29km/h7296m5.5m/s-13.8°C0%0hPa0V00:00:0000:00:0000:00:00
ARGUS22026-09-03 23:29:3527.74612-82.4148115°22km/h7170m6.1m/s-13.4°C0%0hPa0V00:00:0000:00:0000:00:00
ARGUS22026-09-03 23:29:1427.74520-82.41446349°15km/h7063m5.7m/s-12.6°C0%0hPa0V00:00:0000:00:0000:00:00
ARGUS22026-09-03 23:28:5427.74440-82.4141129km/h6964m3.4m/s-11.9°C0%0hPa0V00:00:0000:00:0000:00:00
ARGUS22026-09-03 23:28:3327.74371-82.413719km/h6874m3.9m/s-11.3°C0%0hPa0V00:00:0000:00:0000:00:00
ARGUS22026-09-03 23:28:1327.74287-82.41338349°26km/h6786m4.9m/s-10.9°C0%0hPa0V00:00:0000:00:0000:00:00
ARGUS22026-09-03 23:27:5127.74203-82.41322353°33km/h6703m4.1m/s-10.5°C0%0hPa0V00:00:0000:00:0000:00:00
ARGUS22026-09-03 23:27:3127.74115-82.4129827km/h6617m3.6m/s-10.0°C0%0hPa0V00:00:0000:00:0000:00:00
ARGUS22026-09-03 23:27:1127.74023-82.41295342°22km/h6536m4.2m/s-9.8°C0%0hPa0V00:00:0000:00:0000:00:00
ARGUS22026-09-03 23:26:5027.73915-82.4131232°9km/h6463m3.2m/s-9.2°C0%0hPa0V00:00:0000:00:0000:00:00
ARGUS22026-09-03 23:26:3027.73786-82.4133614°20km/h6378m3.1m/s-8.4°C0%0hPa0V00:00:0000:00:0000:00:00
ARGUS22026-09-03 23:26:0927.73670-82.41368360°22km/h6295m4.9m/s-8.1°C0%0hPa0V00:00:0000:00:0000:00:00
ARGUS22026-09-03 23:25:4927.73573-82.41414348°29km/h6187m6.2m/s-7.6°C0%0hPa0V00:00:0000:00:0000:00:00
ARGUS22026-09-03 23:25:2927.73471-82.41427354°20km/h6105m5.0m/s-7.1°C0%0hPa0V00:00:0000:00:0000:00:00
ARGUS22026-09-03 23:25:0827.73360-82.41443333°9km/h6009m4.3m/s-6.5°C0%0hPa0V00:00:0000:00:0000:00:00
ARGUS22026-09-03 23:24:4727.73278-82.4144124°18km/h5921m5.3m/s-5.5°C0%0hPa0V00:00:0000:00:0000:00:00
ARGUS22026-09-03 23:24:2727.73187-82.41439356°20km/h5834m3.6m/s-5.0°C0%0hPa0V00:00:0000:00:0000:00:00
ARGUS22026-09-03 23:24:0627.73101-82.4144011°24km/h5755m4.5m/s-5.0°C0%0hPa0V00:00:0000:00:0000:00:00
ARGUS22026-09-03 23:23:4627.73017-82.4143012°16km/h5673m4.3m/s-4.9°C0%0hPa0V00:00:0000:00:0000:00:00
ARGUS22026-09-03 23:23:2527.72933-82.4142311km/h5596m3.7m/s-4.5°C0%0hPa0V00:00:0000:00:0000:00:00
ARGUS22026-09-03 23:23:0527.72868-82.4139527km/h5502m3.7m/s-4.1°C0%0hPa0V00:00:0000:00:0000:00:00
ARGUS22026-09-03 23:22:4427.72814-82.41391328°20km/h5411m2.6m/s-3.5°C0%0hPa0V00:00:0000:00:0000:00:00
ARGUS22026-09-03 23:22:2327.72740-82.41384358°20km/h5329m4.5m/s-2.9°C0%0hPa0V00:00:0000:00:0000:00:00
ARGUS22026-09-03 23:22:0327.72658-82.41380303°11km/h5232m4.7m/s-2.4°C0%0hPa0V00:00:0000:00:0000:00:00
ARGUS22026-09-03 23:21:4227.72587-82.41369326°15km/h5134m4.8m/s-2.0°C0%0hPa0V00:00:0000:00:0000:00:00
ARGUS22026-09-03 23:21:0227.72399-82.4135622°24km/h4945m3.9m/s-1.0°C0%0hPa0V00:00:0000:00:0000:00:00
ARGUS22026-09-03 23:20:4027.72319-82.4135336°18km/h4852m3.7m/s-0.2°C0%0hPa0V00:00:0000:00:0000:00:00
ARGUS22026-09-03 23:20:2027.72251-82.41340329°7km/h4760m5.1m/s0.5°C0%0hPa0V00:00:0000:00:0000:00:00
ARGUS22026-09-03 23:20:0027.72180-82.4132122km/h4658m6.1m/s1.4°C0%0hPa0V00:00:0000:00:0000:00:00
ARGUS22026-09-03 23:19:3927.72130-82.4134769°15km/h4560m3.9m/s2.4°C0%0hPa0V00:00:0000:00:0000:00:00
ARGUS22026-09-03 23:19:1927.72102-82.41353323°15km/h4469m4.0m/s2.8°C0%0hPa0V00:00:0000:00:0000:00:00
ARGUS22026-09-03 23:18:5827.72085-82.4136416°18km/h4389m4.8m/s3.2°C0%0hPa0V00:00:0000:00:0000:00:00
ARGUS22026-09-03 23:18:3827.72077-82.4137345°22km/h4288m4.1m/s3.3°C0%0hPa0V00:00:0000:00:0000:00:00
ARGUS22026-09-03 23:18:1727.72044-82.41403352°13km/h4186m4.9m/s4.2°C0%0hPa0V00:00:0000:00:0000:00:00
ARGUS22026-09-03 23:17:5727.72006-82.41455343°2km/h4094m5.3m/s5.0°C0%0hPa0V00:00:0000:00:0000:00:00
ARGUS22026-09-03 23:17:3527.71964-82.41484237°15km/h3990m4.8m/s5.5°C0%0hPa0V00:00:0000:00:0000:00:00
ARGUS22026-09-03 23:17:1427.71966-82.41495360°18km/h3887m6.5m/s6.0°C0%0hPa0V00:00:0000:00:0000:00:00
ARGUS22026-09-03 23:16:5327.71954-82.41482276°9km/h3782m4.3m/s6.3°C0%0hPa0V00:00:0000:00:0000:00:00
ARGUS22026-09-03 23:16:3327.71931-82.41453284°13km/h3692m4.0m/s6.7°C0%0hPa0V00:00:0000:00:0000:00:00
ARGUS22026-09-03 23:16:0927.71901-82.41443358°20km/h3581m5.1m/s7.4°C0%0hPa0V00:00:0000:00:0000:00:00
ARGUS22026-09-03 23:15:4827.71874-82.41419328°15km/h3481m4.5m/s8.1°C0%0hPa0V00:00:0000:00:0000:00:00
ARGUS22026-09-03 23:15:2727.71825-82.41390304°18km/h3365m5.4m/s8.9°C0%0hPa0V00:00:0000:00:0000:00:00
ARGUS22026-09-03 23:15:0127.71769-82.41342102°7km/h3245m5.3m/s9.2°C0%0hPa0V00:00:0000:00:0000:00:00
ARGUS22026-09-03 23:14:3427.71751-82.4132018km/h3109m6.7m/s10.0°C0%0hPa0V00:00:0000:00:0000:00:00
ARGUS22026-09-03 23:14:0527.71676-82.4128020°20km/h2951m3.5m/s11.0°C0%0hPa0V00:00:0000:00:0000:00:00
ARGUS22026-09-03 23:13:3927.71593-82.41240296°20km/h2813m6.4m/s11.5°C0%0hPa0V00:00:0000:00:0000:00:00
ARGUS22026-09-03 23:13:1927.71539-82.41196328°13km/h2718m6.2m/s11.9°C0%0hPa0V00:00:0000:00:0000:00:00
ARGUS22026-09-03 23:12:5827.71479-82.4117920km/h2628m5.0m/s12.4°C0%0hPa0V00:00:0000:00:0000:00:00
ARGUS22026-09-03 23:12:3727.71406-82.4115124km/h2537m3.3m/s12.9°C0%0hPa0V00:00:0000:00:0000:00:00
ARGUS22026-09-03 23:12:1727.71317-82.41093360°5km/h2438m4.6m/s13.4°C0%0hPa0V00:00:0000:00:0000:00:00
ARGUS22026-09-03 23:11:5627.71237-82.4103913°7km/h2346m3.7m/s13.9°C0%0hPa0V00:00:0000:00:0000:00:00
ARGUS22026-09-03 23:11:3627.71139-82.40971314°13km/h2238m7.1m/s14.4°C0%0hPa0V00:00:0000:00:0000:00:00
ARGUS22026-09-03 23:11:1427.71056-82.40914329°26km/h2129m5.3m/s15.1°C0%0hPa0V00:00:0000:00:0000:00:00
ARGUS22026-09-03 23:10:5327.70991-82.40854312°22km/h2018m6.7m/s15.2°C0%0hPa0V00:00:0000:00:0000:00:00
ARGUS22026-09-03 23:10:3127.70936-82.40814340°22km/h1887m5.3m/s14.9°C0%0hPa0V00:00:0000:00:0000:00:00
ARGUS22026-09-03 23:10:0927.70900-82.4072616km/h1769m4.9m/s15.7°C0%0hPa0V00:00:0000:00:0000:00:00
ARGUS22026-09-03 23:09:4827.70864-82.40677237°11km/h1656m6.7m/s16.3°C0%0hPa0V00:00:0000:00:0000:00:00
ARGUS22026-09-03 23:09:1427.70808-82.40578331°16km/h1470m6.2m/s18.0°C0%0hPa0V00:00:0000:00:0000:00:00


GPX KML Map

© wettersonde.net (DO2JMG) - 2026  -  -